sensor_id;sensor_type;location;lat;lon;timestamp;temperature;humidity
9810;DHT22;4944;52.514;13.192;2022-09-09T00:01:42;16.40;99.90
9810;DHT22;4944;52.514;13.192;2022-09-09T00:04:13;16.40;99.90
9810;DHT22;4944;52.514;13.192;2022-09-09T00:06:44;16.40;99.90
9810;DHT22;4944;52.514;13.192;2022-09-09T00:09:16;16.50;99.90
9810;DHT22;4944;52.514;13.192;2022-09-09T00:11:47;16.50;99.90
9810;DHT22;4944;52.514;13.192;2022-09-09T00:14:20;16.60;99.90
9810;DHT22;4944;52.514;13.192;2022-09-09T00:16:54;16.60;99.90
9810;DHT22;4944;52.514;13.192;2022-09-09T00:19:26;16.60;99.90
9810;DHT22;4944;52.514;13.192;2022-09-09T00:22:07;16.60;99.90
9810;DHT22;4944;52.514;13.192;2022-09-09T00:24:40;16.60;99.90
9810;DHT22;4944;52.514;13.192;2022-09-09T00:27:16;16.70;99.90
9810;DHT22;4944;52.514;13.192;2022-09-09T00:29:49;16.60;99.90
9810;DHT22;4944;52.514;13.192;2022-09-09T00:32:20;16.60;99.90
9810;DHT22;4944;52.514;13.192;2022-09-09T00:34:49;16.60;99.90
9810;DHT22;4944;52.514;13.192;2022-09-09T00:37:19;16.60;99.90
9810;DHT22;4944;52.514;13.192;2022-09-09T00:39:48;16.70;99.90
9810;DHT22;4944;52.514;13.192;2022-09-09T00:42:19;16.60;99.90
9810;DHT22;4944;52.514;13.192;2022-09-09T00:44:59;16.60;99.90
9810;DHT22;4944;52.514;13.192;2022-09-09T00:47:39;16.60;99.90
9810;DHT22;4944;52.514;13.192;2022-09-09T00:50:28;16.60;99.90
9810;DHT22;4944;52.514;13.192;2022-09-09T00:53:05;16.70;99.90
9810;DHT22;4944;52.514;13.192;2022-09-09T00:55:43;16.70;99.90
9810;DHT22;4944;52.514;13.192;2022-09-09T00:58:12;16.70;99.90
9810;DHT22;4944;52.514;13.192;2022-09-09T01:00:43;16.60;99.90
9810;DHT22;4944;52.514;13.192;2022-09-09T01:03:24;16.60;99.90
9810;DHT22;4944;52.514;13.192;2022-09-09T01:06:14;16.60;99.90
9810;DHT22;4944;52.514;13.192;2022-09-09T01:09:13;16.60;99.90
9810;DHT22;4944;52.514;13.192;2022-09-09T01:11:52;16.60;99.90
9810;DHT22;4944;52.514;13.192;2022-09-09T01:14:30;16.60;99.90
9810;DHT22;4944;52.514;13.192;2022-09-09T01:17:04;16.60;99.90
9810;DHT22;4944;52.514;13.192;2022-09-09T01:19:40;16.50;99.90
9810;DHT22;4944;52.514;13.192;2022-09-09T01:22:18;16.50;99.90
9810;DHT22;4944;52.514;13.192;2022-09-09T01:25:07;16.50;99.90
9810;DHT22;4944;52.514;13.192;2022-09-09T01:27:40;16.50;99.90
9810;DHT22;4944;52.514;13.192;2022-09-09T01:30:10;16.50;99.90
9810;DHT22;4944;52.514;13.192;2022-09-09T01:32:40;16.50;99.90
9810;DHT22;4944;52.514;13.192;2022-09-09T01:35:11;16.40;99.90
9810;DHT22;4944;52.514;13.192;2022-09-09T01:37:38;16.40;99.90
9810;DHT22;4944;52.514;13.192;2022-09-09T01:40:06;16.40;99.90
9810;DHT22;4944;52.514;13.192;2022-09-09T01:42:33;16.40;99.90
9810;DHT22;4944;52.514;13.192;2022-09-09T01:45:01;16.40;99.90
9810;DHT22;4944;52.514;13.192;2022-09-09T01:47:28;16.40;99.90
9810;DHT22;4944;52.514;13.192;2022-09-09T01:49:55;16.40;99.90
9810;DHT22;4944;52.514;13.192;2022-09-09T01:52:22;16.40;99.90
9810;DHT22;4944;52.514;13.192;2022-09-09T01:54:49;16.40;99.90
9810;DHT22;4944;52.514;13.192;2022-09-09T01:57:18;16.40;99.90
9810;DHT22;4944;52.514;13.192;2022-09-09T02:00:04;16.40;99.90
9810;DHT22;4944;52.514;13.192;2022-09-09T02:02:37;16.40;99.90
9810;DHT22;4944;52.514;13.192;2022-09-09T02:05:15;16.40;99.90
9810;DHT22;4944;52.514;13.192;2022-09-09T02:07:47;16.40;99.90
9810;DHT22;4944;52.514;13.192;2022-09-09T02:10:19;16.40;99.90
9810;DHT22;4944;52.514;13.192;2022-09-09T02:12:50;16.40;99.90
9810;DHT22;4944;52.514;13.192;2022-09-09T02:15:23;16.40;99.90
9810;DHT22;4944;52.514;13.192;2022-09-09T02:17:52;16.30;99.90
9810;DHT22;4944;52.514;13.192;2022-09-09T02:20:22;16.30;99.90
9810;DHT22;4944;52.514;13.192;2022-09-09T02:22:53;16.30;99.90
9810;DHT22;4944;52.514;13.192;2022-09-09T02:25:24;16.30;99.90
9810;DHT22;4944;52.514;13.192;2022-09-09T02:27:52;16.30;99.90
9810;DHT22;4944;52.514;13.192;2022-09-09T02:30:20;16.30;99.90
9810;DHT22;4944;52.514;13.192;2022-09-09T02:32:49;16.30;99.90
9810;DHT22;4944;52.514;13.192;2022-09-09T02:35:20;16.30;99.90
9810;DHT22;4944;52.514;13.192;2022-09-09T02:37:49;16.20;99.90
9810;DHT22;4944;52.514;13.192;2022-09-09T02:40:16;16.20;99.90
9810;DHT22;4944;52.514;13.192;2022-09-09T02:42:45;16.20;99.90
9810;DHT22;4944;52.514;13.192;2022-09-09T02:45:14;16.20;99.90
9810;DHT22;4944;52.514;13.192;2022-09-09T02:47:48;16.20;99.90
9810;DHT22;4944;52.514;13.192;2022-09-09T02:50:20;16.20;99.90
9810;DHT22;4944;52.514;13.192;2022-09-09T02:52:59;16.20;99.90
9810;DHT22;4944;52.514;13.192;2022-09-09T02:55:38;16.20;99.90
9810;DHT22;4944;52.514;13.192;2022-09-09T02:58:07;16.20;99.90
9810;DHT22;4944;52.514;13.192;2022-09-09T03:00:36;16.20;99.90
9810;DHT22;4944;52.514;13.192;2022-09-09T03:03:06;16.10;99.90
9810;DHT22;4944;52.514;13.192;2022-09-09T03:05:34;16.10;99.90
9810;DHT22;4944;52.514;13.192;2022-09-09T03:08:01;16.20;99.90
9810;DHT22;4944;52.514;13.192;2022-09-09T03:10:28;16.20;99.90
9810;DHT22;4944;52.514;13.192;2022-09-09T03:12:55;16.10;99.90
9810;DHT22;4944;52.514;13.192;2022-09-09T03:15:22;16.10;99.90
9810;DHT22;4944;52.514;13.192;2022-09-09T03:17:49;16.10;99.90
9810;DHT22;4944;52.514;13.192;2022-09-09T03:20:17;16.20;99.90
9810;DHT22;4944;52.514;13.192;2022-09-09T03:22:44;16.10;99.90
9810;DHT22;4944;52.514;13.192;2022-09-09T03:25:11;16.10;99.90
9810;DHT22;4944;52.514;13.192;2022-09-09T03:27:38;16.10;99.90
9810;DHT22;4944;52.514;13.192;2022-09-09T03:30:06;16.10;99.90
9810;DHT22;4944;52.514;13.192;2022-09-09T03:32:33;16.10;99.90
9810;DHT22;4944;52.514;13.192;2022-09-09T03:34:59;16.10;99.90
9810;DHT22;4944;52.514;13.192;2022-09-09T03:37:27;16.10;99.90
9810;DHT22;4944;52.514;13.192;2022-09-09T03:39:54;16.10;99.90
9810;DHT22;4944;52.514;13.192;2022-09-09T03:42:21;16.00;99.90
9810;DHT22;4944;52.514;13.192;2022-09-09T03:44:48;16.00;99.90
9810;DHT22;4944;52.514;13.192;2022-09-09T03:47:16;16.10;99.90
9810;DHT22;4944;52.514;13.192;2022-09-09T03:49:45;15.90;99.90
9810;DHT22;4944;52.514;13.192;2022-09-09T03:52:12;15.90;99.90
9810;DHT22;4944;52.514;13.192;2022-09-09T03:54:40;15.90;99.90
9810;DHT22;4944;52.514;13.192;2022-09-09T03:57:08;15.90;99.90
9810;DHT22;4944;52.514;13.192;2022-09-09T03:59:36;15.90;99.90
9810;DHT22;4944;52.514;13.192;2022-09-09T04:02:04;15.90;99.90
9810;DHT22;4944;52.514;13.192;2022-09-09T04:04:31;15.90;99.90
9810;DHT22;4944;52.514;13.192;2022-09-09T04:06:57;15.90;99.90
9810;DHT22;4944;52.514;13.192;2022-09-09T04:09:24;15.90;99.90
9810;DHT22;4944;52.514;13.192;2022-09-09T04:11:52;16.00;99.90
9810;DHT22;4944;52.514;13.192;2022-09-09T04:14:20;16.00;99.90
9810;DHT22;4944;52.514;13.192;2022-09-09T04:16:47;16.00;99.90
9810;DHT22;4944;52.514;13.192;2022-09-09T04:19:14;16.00;99.90
9810;DHT22;4944;52.514;13.192;2022-09-09T04:21:41;16.00;99.90
9810;DHT22;4944;52.514;13.192;2022-09-09T04:24:09;15.90;99.90
9810;DHT22;4944;52.514;13.192;2022-09-09T04:26:36;16.00;99.90
9810;DHT22;4944;52.514;13.192;2022-09-09T04:29:04;16.00;99.90
9810;DHT22;4944;52.514;13.192;2022-09-09T04:31:33;16.00;99.90
9810;DHT22;4944;52.514;13.192;2022-09-09T04:34:00;16.00;99.90
9810;DHT22;4944;52.514;13.192;2022-09-09T04:36:30;15.90;99.90
9810;DHT22;4944;52.514;13.192;2022-09-09T04:38:58;15.90;99.90
9810;DHT22;4944;52.514;13.192;2022-09-09T04:41:25;16.00;99.90
9810;DHT22;4944;52.514;13.192;2022-09-09T04:43:51;15.90;99.90
9810;DHT22;4944;52.514;13.192;2022-09-09T04:46:20;15.90;99.90
9810;DHT22;4944;52.514;13.192;2022-09-09T04:48:48;15.90;99.90
9810;DHT22;4944;52.514;13.192;2022-09-09T04:51:15;15.90;99.90
9810;DHT22;4944;52.514;13.192;2022-09-09T04:53:42;16.00;99.90
9810;DHT22;4944;52.514;13.192;2022-09-09T04:56:11;15.90;99.90
9810;DHT22;4944;52.514;13.192;2022-09-09T04:58:38;16.00;99.90
9810;DHT22;4944;52.514;13.192;2022-09-09T05:01:08;15.90;99.90
9810;DHT22;4944;52.514;13.192;2022-09-09T05:03:37;15.90;99.90
9810;DHT22;4944;52.514;13.192;2022-09-09T05:06:09;15.90;99.90
9810;DHT22;4944;52.514;13.192;2022-09-09T05:08:36;15.90;99.90
9810;DHT22;4944;52.514;13.192;2022-09-09T05:11:13;15.90;99.90
9810;DHT22;4944;52.514;13.192;2022-09-09T05:13:41;15.90;99.90
9810;DHT22;4944;52.514;13.192;2022-09-09T05:16:07;15.90;99.90
9810;DHT22;4944;52.514;13.192;2022-09-09T05:18:38;16.00;99.90
9810;DHT22;4944;52.514;13.192;2022-09-09T05:21:08;15.90;99.90
9810;DHT22;4944;52.514;13.192;2022-09-09T05:23:35;15.90;99.90
9810;DHT22;4944;52.514;13.192;2022-09-09T05:26:05;15.90;99.90
9810;DHT22;4944;52.514;13.192;2022-09-09T05:28:34;15.90;99.90
9810;DHT22;4944;52.514;13.192;2022-09-09T05:31:05;15.90;99.90
9810;DHT22;4944;52.514;13.192;2022-09-09T05:33:34;15.90;99.90
9810;DHT22;4944;52.514;13.192;2022-09-09T05:36:06;15.90;99.90
9810;DHT22;4944;52.514;13.192;2022-09-09T05:38:34;16.00;99.90
9810;DHT22;4944;52.514;13.192;2022-09-09T05:41:02;15.90;99.90
9810;DHT22;4944;52.514;13.192;2022-09-09T05:43:31;15.90;99.90
9810;DHT22;4944;52.514;13.192;2022-09-09T05:46:02;15.90;99.90
9810;DHT22;4944;52.514;13.192;2022-09-09T05:48:33;15.90;99.90
9810;DHT22;4944;52.514;13.192;2022-09-09T05:51:01;15.90;99.90
9810;DHT22;4944;52.514;13.192;2022-09-09T05:53:32;15.90;99.90
9810;DHT22;4944;52.514;13.192;2022-09-09T05:56:01;15.90;99.90
9810;DHT22;4944;52.514;13.192;2022-09-09T05:58:33;15.90;99.90
9810;DHT22;4944;52.514;13.192;2022-09-09T06:01:02;16.00;99.90
9810;DHT22;4944;52.514;13.192;2022-09-09T06:03:34;15.90;99.90
9810;DHT22;4944;52.514;13.192;2022-09-09T06:06:06;15.90;99.90
9810;DHT22;4944;52.514;13.192;2022-09-09T06:08:33;16.00;99.90
9810;DHT22;4944;52.514;13.192;2022-09-09T06:11:05;16.00;99.90
9810;DHT22;4944;52.514;13.192;2022-09-09T06:13:32;16.00;99.90
9810;DHT22;4944;52.514;13.192;2022-09-09T06:16:00;16.00;99.90
9810;DHT22;4944;52.514;13.192;2022-09-09T06:18:27;16.10;99.90
9810;DHT22;4944;52.514;13.192;2022-09-09T06:20:56;16.10;99.90
9810;DHT22;4944;52.514;13.192;2022-09-09T06:23:25;16.10;99.90
9810;DHT22;4944;52.514;13.192;2022-09-09T06:26:01;16.00;99.90
9810;DHT22;4944;52.514;13.192;2022-09-09T06:28:31;16.10;99.90
9810;DHT22;4944;52.514;13.192;2022-09-09T06:30:58;16.10;99.90
9810;DHT22;4944;52.514;13.192;2022-09-09T06:33:25;16.10;99.90
9810;DHT22;4944;52.514;13.192;2022-09-09T06:35:53;16.10;99.90
9810;DHT22;4944;52.514;13.192;2022-09-09T06:38:20;16.10;99.90
9810;DHT22;4944;52.514;13.192;2022-09-09T06:40:52;16.10;99.90
9810;DHT22;4944;52.514;13.192;2022-09-09T06:43:20;16.20;99.90
9810;DHT22;4944;52.514;13.192;2022-09-09T06:45:53;16.20;99.90
9810;DHT22;4944;52.514;13.192;2022-09-09T06:48:20;16.10;99.90
9810;DHT22;4944;52.514;13.192;2022-09-09T06:50:47;16.20;99.90
9810;DHT22;4944;52.514;13.192;2022-09-09T06:53:16;16.20;99.90
9810;DHT22;4944;52.514;13.192;2022-09-09T06:55:45;16.20;99.90
9810;DHT22;4944;52.514;13.192;2022-09-09T06:58:13;16.30;99.90
9810;DHT22;4944;52.514;13.192;2022-09-09T07:00:40;16.30;99.90
9810;DHT22;4944;52.514;13.192;2022-09-09T07:03:06;16.30;99.90
9810;DHT22;4944;52.514;13.192;2022-09-09T07:05:33;16.40;99.90
9810;DHT22;4944;52.514;13.192;2022-09-09T07:08:00;16.40;99.90
9810;DHT22;4944;52.514;13.192;2022-09-09T07:10:28;16.40;99.90
9810;DHT22;4944;52.514;13.192;2022-09-09T07:12:54;16.40;99.90
9810;DHT22;4944;52.514;13.192;2022-09-09T07:15:23;16.50;99.90
9810;DHT22;4944;52.514;13.192;2022-09-09T07:17:50;16.60;99.90
9810;DHT22;4944;52.514;13.192;2022-09-09T07:20:18;16.60;99.90
9810;DHT22;4944;52.514;13.192;2022-09-09T07:22:45;16.70;99.90
9810;DHT22;4944;52.514;13.192;2022-09-09T07:25:12;16.70;99.90
9810;DHT22;4944;52.514;13.192;2022-09-09T07:27:39;16.80;99.90
9810;DHT22;4944;52.514;13.192;2022-09-09T07:30:07;16.90;99.90
9810;DHT22;4944;52.514;13.192;2022-09-09T07:32:35;16.90;99.90
9810;DHT22;4944;52.514;13.192;2022-09-09T07:35:02;17.00;99.90
9810;DHT22;4944;52.514;13.192;2022-09-09T07:37:29;17.00;99.90
9810;DHT22;4944;52.514;13.192;2022-09-09T07:39:56;17.10;99.90
9810;DHT22;4944;52.514;13.192;2022-09-09T07:42:23;17.20;99.90
9810;DHT22;4944;52.514;13.192;2022-09-09T07:44:49;17.20;99.90
9810;DHT22;4944;52.514;13.192;2022-09-09T07:47:20;17.30;99.90
9810;DHT22;4944;52.514;13.192;2022-09-09T07:49:48;17.30;99.90
9810;DHT22;4944;52.514;13.192;2022-09-09T07:52:15;17.40;99.90
9810;DHT22;4944;52.514;13.192;2022-09-09T07:54:42;17.40;99.90
9810;DHT22;4944;52.514;13.192;2022-09-09T07:57:11;17.50;99.90
9810;DHT22;4944;52.514;13.192;2022-09-09T07:59:38;17.50;99.90
9810;DHT22;4944;52.514;13.192;2022-09-09T08:02:04;17.60;99.90
9810;DHT22;4944;52.514;13.192;2022-09-09T08:04:32;17.70;99.90
9810;DHT22;4944;52.514;13.192;2022-09-09T08:07:01;17.80;99.90
9810;DHT22;4944;52.514;13.192;2022-09-09T08:09:29;17.90;99.90
9810;DHT22;4944;52.514;13.192;2022-09-09T08:11:58;17.90;99.90
9810;DHT22;4944;52.514;13.192;2022-09-09T08:14:25;18.00;99.90
9810;DHT22;4944;52.514;13.192;2022-09-09T08:16:52;18.10;99.90
9810;DHT22;4944;52.514;13.192;2022-09-09T08:19:19;18.10;99.90
9810;DHT22;4944;52.514;13.192;2022-09-09T08:21:46;18.10;99.90
9810;DHT22;4944;52.514;13.192;2022-09-09T08:24:15;18.00;99.90
9810;DHT22;4944;52.514;13.192;2022-09-09T08:26:46;18.10;99.90
9810;DHT22;4944;52.514;13.192;2022-09-09T08:29:15;18.10;99.90
9810;DHT22;4944;52.514;13.192;2022-09-09T08:31:43;18.10;99.90
9810;DHT22;4944;52.514;13.192;2022-09-09T08:34:11;18.20;99.90
9810;DHT22;4944;52.514;13.192;2022-09-09T08:36:40;18.20;99.90
9810;DHT22;4944;52.514;13.192;2022-09-09T08:39:09;18.20;99.90
9810;DHT22;4944;52.514;13.192;2022-09-09T08:42:11;18.20;99.90
9810;DHT22;4944;52.514;13.192;2022-09-09T08:47:35;18.30;99.90
9810;DHT22;4944;52.514;13.192;2022-09-09T08:50:16;18.30;99.90
9810;DHT22;4944;52.514;13.192;2022-09-09T08:52:51;18.30;99.90
9810;DHT22;4944;52.514;13.192;2022-09-09T08:55:26;18.30;99.90
9810;DHT22;4944;52.514;13.192;2022-09-09T08:57:58;18.30;99.90
9810;DHT22;4944;52.514;13.192;2022-09-09T09:00:33;18.30;99.90
9810;DHT22;4944;52.514;13.192;2022-09-09T09:03:06;18.40;99.90
9810;DHT22;4944;52.514;13.192;2022-09-09T09:05:42;18.40;99.90
9810;DHT22;4944;52.514;13.192;2022-09-09T09:08:25;18.40;99.90
9810;DHT22;4944;52.514;13.192;2022-09-09T09:10:55;18.50;99.90
9810;DHT22;4944;52.514;13.192;2022-09-09T09:13:34;18.50;99.90
9810;DHT22;4944;52.514;13.192;2022-09-09T09:16:16;18.60;99.90
9810;DHT22;4944;52.514;13.192;2022-09-09T09:18:45;18.60;99.90
9810;DHT22;4944;52.514;13.192;2022-09-09T09:21:15;18.70;99.90
9810;DHT22;4944;52.514;13.192;2022-09-09T09:23:48;18.70;99.90
9810;DHT22;4944;52.514;13.192;2022-09-09T09:26:18;18.80;99.90
9810;DHT22;4944;52.514;13.192;2022-09-09T09:28:46;18.90;99.90
9810;DHT22;4944;52.514;13.192;2022-09-09T09:31:13;19.10;99.90
9810;DHT22;4944;52.514;13.192;2022-09-09T09:33:47;19.20;99.90
9810;DHT22;4944;52.514;13.192;2022-09-09T09:36:15;19.30;99.90
9810;DHT22;4944;52.514;13.192;2022-09-09T09:38:53;19.40;99.90
9810;DHT22;4944;52.514;13.192;2022-09-09T09:41:32;19.40;99.90
9810;DHT22;4944;52.514;13.192;2022-09-09T09:44:02;19.50;99.90
9810;DHT22;4944;52.514;13.192;2022-09-09T09:46:30;19.50;99.90
9810;DHT22;4944;52.514;13.192;2022-09-09T09:48:58;19.60;99.90
9810;DHT22;4944;52.514;13.192;2022-09-09T09:51:26;19.60;99.90
9810;DHT22;4944;52.514;13.192;2022-09-09T09:53:53;19.70;99.90
9810;DHT22;4944;52.514;13.192;2022-09-09T09:56:27;19.80;99.90
9810;DHT22;4944;52.514;13.192;2022-09-09T09:58:55;19.90;99.90
9810;DHT22;4944;52.514;13.192;2022-09-09T10:01:24;20.00;99.90
9810;DHT22;4944;52.514;13.192;2022-09-09T10:03:54;20.00;99.90
9810;DHT22;4944;52.514;13.192;2022-09-09T10:06:30;20.10;99.90
9810;DHT22;4944;52.514;13.192;2022-09-09T10:08:57;20.00;99.90
9810;DHT22;4944;52.514;13.192;2022-09-09T10:11:33;20.00;99.90
9810;DHT22;4944;52.514;13.192;2022-09-09T10:14:08;20.00;99.90
9810;DHT22;4944;52.514;13.192;2022-09-09T10:16:51;20.10;99.90
9810;DHT22;4944;52.514;13.192;2022-09-09T10:19:29;20.10;99.90
9810;DHT22;4944;52.514;13.192;2022-09-09T10:22:04;20.10;99.90
9810;DHT22;4944;52.514;13.192;2022-09-09T10:24:48;20.20;99.90
9810;DHT22;4944;52.514;13.192;2022-09-09T10:27:20;20.20;99.90
9810;DHT22;4944;52.514;13.192;2022-09-09T10:30:01;20.30;99.90
9810;DHT22;4944;52.514;13.192;2022-09-09T10:32:45;20.30;99.90
9810;DHT22;4944;52.514;13.192;2022-09-09T10:35:21;20.30;99.90
9810;DHT22;4944;52.514;13.192;2022-09-09T10:38:12;20.40;99.90
9810;DHT22;4944;52.514;13.192;2022-09-09T10:40:45;20.50;99.90
9810;DHT22;4944;52.514;13.192;2022-09-09T10:43:26;20.50;99.90
9810;DHT22;4944;52.514;13.192;2022-09-09T10:46:05;20.70;99.90
9810;DHT22;4944;52.514;13.192;2022-09-09T10:48:51;20.80;99.90
9810;DHT22;4944;52.514;13.192;2022-09-09T10:51:23;21.00;99.90
9810;DHT22;4944;52.514;13.192;2022-09-09T10:54:15;21.10;99.90
9810;DHT22;4944;52.514;13.192;2022-09-09T10:56:48;21.20;99.90
9810;DHT22;4944;52.514;13.192;2022-09-09T10:59:19;21.40;99.90
9810;DHT22;4944;52.514;13.192;2022-09-09T11:01:51;21.50;99.90
9810;DHT22;4944;52.514;13.192;2022-09-09T11:04:23;21.60;99.90
9810;DHT22;4944;52.514;13.192;2022-09-09T11:06:55;21.70;99.90
9810;DHT22;4944;52.514;13.192;2022-09-09T11:09:24;21.80;99.90
9810;DHT22;4944;52.514;13.192;2022-09-09T11:11:54;21.90;99.90
9810;DHT22;4944;52.514;13.192;2022-09-09T11:14:26;21.90;99.90
9810;DHT22;4944;52.514;13.192;2022-09-09T11:16:58;22.00;99.90
9810;DHT22;4944;52.514;13.192;2022-09-09T11:19:31;22.10;99.90
9810;DHT22;4944;52.514;13.192;2022-09-09T11:22:03;22.20;99.90
9810;DHT22;4944;52.514;13.192;2022-09-09T11:24:35;22.30;99.90
9810;DHT22;4944;52.514;13.192;2022-09-09T11:27:09;22.40;99.90
9810;DHT22;4944;52.514;13.192;2022-09-09T11:32:58;22.70;99.90
9810;DHT22;4944;52.514;13.192;2022-09-09T11:35:38;22.90;99.90
9810;DHT22;4944;52.514;13.192;2022-09-09T11:38:19;23.00;99.90
9810;DHT22;4944;52.514;13.192;2022-09-09T11:40:55;23.10;99.90
9810;DHT22;4944;52.514;13.192;2022-09-09T11:43:25;23.20;99.90
9810;DHT22;4944;52.514;13.192;2022-09-09T11:45:54;23.30;99.90
9810;DHT22;4944;52.514;13.192;2022-09-09T11:48:27;23.50;99.90
9810;DHT22;4944;52.514;13.192;2022-09-09T11:51:02;23.60;99.90
9810;DHT22;4944;52.514;13.192;2022-09-09T11:53:33;23.70;99.90
9810;DHT22;4944;52.514;13.192;2022-09-09T11:56:09;23.70;99.90
9810;DHT22;4944;52.514;13.192;2022-09-09T11:58:40;23.80;99.90
9810;DHT22;4944;52.514;13.192;2022-09-09T12:01:29;24.00;99.90
9810;DHT22;4944;52.514;13.192;2022-09-09T12:04:16;23.80;99.90
9810;DHT22;4944;52.514;13.192;2022-09-09T12:06:46;23.90;99.90
9810;DHT22;4944;52.514;13.192;2022-09-09T12:09:23;24.00;99.90
9810;DHT22;4944;52.514;13.192;2022-09-09T12:11:51;24.10;99.90
9810;DHT22;4944;52.514;13.192;2022-09-09T12:14:23;24.10;99.90
9810;DHT22;4944;52.514;13.192;2022-09-09T12:17:09;24.00;99.90
9810;DHT22;4944;52.514;13.192;2022-09-09T12:19:36;23.80;99.90
9810;DHT22;4944;52.514;13.192;2022-09-09T12:22:09;23.70;99.90
9810;DHT22;4944;52.514;13.192;2022-09-09T12:24:47;23.70;99.90
9810;DHT22;4944;52.514;13.192;2022-09-09T12:27:21;23.60;99.90
9810;DHT22;4944;52.514;13.192;2022-09-09T12:29:57;23.40;99.90
9810;DHT22;4944;52.514;13.192;2022-09-09T12:32:26;23.20;99.90
9810;DHT22;4944;52.514;13.192;2022-09-09T12:34:55;23.30;99.90
9810;DHT22;4944;52.514;13.192;2022-09-09T12:37:31;23.40;99.90
9810;DHT22;4944;52.514;13.192;2022-09-09T12:40:00;23.60;99.90
9810;DHT22;4944;52.514;13.192;2022-09-09T12:42:28;23.70;99.90
9810;DHT22;4944;52.514;13.192;2022-09-09T12:44:57;23.90;99.90
9810;DHT22;4944;52.514;13.192;2022-09-09T12:47:36;24.10;99.90
9810;DHT22;4944;52.514;13.192;2022-09-09T12:50:15;24.30;99.90
9810;DHT22;4944;52.514;13.192;2022-09-09T12:52:44;24.40;99.90
9810;DHT22;4944;52.514;13.192;2022-09-09T12:55:17;24.30;99.90
9810;DHT22;4944;52.514;13.192;2022-09-09T12:57:45;24.10;99.90
9810;DHT22;4944;52.514;13.192;2022-09-09T13:00:15;23.90;99.90
9810;DHT22;4944;52.514;13.192;2022-09-09T13:02:47;23.80;99.90
9810;DHT22;4944;52.514;13.192;2022-09-09T13:05:18;23.60;99.90
9810;DHT22;4944;52.514;13.192;2022-09-09T13:07:47;23.40;99.90
9810;DHT22;4944;52.514;13.192;2022-09-09T13:10:15;23.30;99.90
9810;DHT22;4944;52.514;13.192;2022-09-09T13:12:46;23.20;99.90
9810;DHT22;4944;52.514;13.192;2022-09-09T13:15:19;23.10;99.90
9810;DHT22;4944;52.514;13.192;2022-09-09T13:17:53;22.90;99.90
9810;DHT22;4944;52.514;13.192;2022-09-09T13:20:21;22.80;99.90
9810;DHT22;4944;52.514;13.192;2022-09-09T13:22:51;22.70;99.90
9810;DHT22;4944;52.514;13.192;2022-09-09T13:25:23;22.60;99.90
9810;DHT22;4944;52.514;13.192;2022-09-09T13:27:58;22.50;99.90
9810;DHT22;4944;52.514;13.192;2022-09-09T13:30:27;22.40;99.90
9810;DHT22;4944;52.514;13.192;2022-09-09T13:33:06;22.30;99.90
9810;DHT22;4944;52.514;13.192;2022-09-09T13:35:48;22.30;99.90
9810;DHT22;4944;52.514;13.192;2022-09-09T13:38:17;22.20;99.90
9810;DHT22;4944;52.514;13.192;2022-09-09T13:40:53;22.20;99.90
9810;DHT22;4944;52.514;13.192;2022-09-09T13:43:24;22.20;99.90
9810;DHT22;4944;52.514;13.192;2022-09-09T13:45:55;22.30;99.90
9810;DHT22;4944;52.514;13.192;2022-09-09T13:48:24;22.50;99.90
9810;DHT22;4944;52.514;13.192;2022-09-09T13:51:02;22.60;99.90
9810;DHT22;4944;52.514;13.192;2022-09-09T13:53:34;22.80;99.90
9810;DHT22;4944;52.514;13.192;2022-09-09T13:56:01;23.00;99.90
9810;DHT22;4944;52.514;13.192;2022-09-09T13:58:32;23.20;99.90
9810;DHT22;4944;52.514;13.192;2022-09-09T14:00:59;23.40;99.90
9810;DHT22;4944;52.514;13.192;2022-09-09T14:03:25;23.50;99.90
9810;DHT22;4944;52.514;13.192;2022-09-09T14:05:53;23.60;99.90
9810;DHT22;4944;52.514;13.192;2022-09-09T14:08:25;23.70;99.90
9810;DHT22;4944;52.514;13.192;2022-09-09T14:10:53;23.60;99.90
9810;DHT22;4944;52.514;13.192;2022-09-09T14:13:21;23.50;99.90
9810;DHT22;4944;52.514;13.192;2022-09-09T14:15:49;23.40;99.90
9810;DHT22;4944;52.514;13.192;2022-09-09T14:18:16;23.30;99.90
9810;DHT22;4944;52.514;13.192;2022-09-09T14:20:44;23.30;99.90
9810;DHT22;4944;52.514;13.192;2022-09-09T14:23:11;23.40;99.90
9810;DHT22;4944;52.514;13.192;2022-09-09T14:25:40;23.50;99.90
9810;DHT22;4944;52.514;13.192;2022-09-09T14:28:11;23.60;99.90
9810;DHT22;4944;52.514;13.192;2022-09-09T14:30:39;23.90;99.90
9810;DHT22;4944;52.514;13.192;2022-09-09T14:33:08;24.10;99.90
9810;DHT22;4944;52.514;13.192;2022-09-09T14:35:36;24.20;99.90
9810;DHT22;4944;52.514;13.192;2022-09-09T14:38:04;24.30;99.90
9810;DHT22;4944;52.514;13.192;2022-09-09T14:40:31;24.40;99.90
9810;DHT22;4944;52.514;13.192;2022-09-09T14:42:59;24.60;99.90
9810;DHT22;4944;52.514;13.192;2022-09-09T14:45:27;24.70;99.90
9810;DHT22;4944;52.514;13.192;2022-09-09T14:47:54;24.80;99.90
9810;DHT22;4944;52.514;13.192;2022-09-09T14:50:22;24.70;99.90
9810;DHT22;4944;52.514;13.192;2022-09-09T14:52:49;24.60;99.90
9810;DHT22;4944;52.514;13.192;2022-09-09T14:55:16;24.30;99.90
9810;DHT22;4944;52.514;13.192;2022-09-09T14:57:43;24.20;99.90
9810;DHT22;4944;52.514;13.192;2022-09-09T15:00:11;24.00;99.90
9810;DHT22;4944;52.514;13.192;2022-09-09T15:02:40;23.80;99.90
9810;DHT22;4944;52.514;13.192;2022-09-09T15:05:07;23.70;99.90
9810;DHT22;4944;52.514;13.192;2022-09-09T15:07:34;23.50;99.90
9810;DHT22;4944;52.514;13.192;2022-09-09T15:10:02;23.40;99.90
9810;DHT22;4944;52.514;13.192;2022-09-09T15:12:29;23.40;99.90
9810;DHT22;4944;52.514;13.192;2022-09-09T15:14:56;23.50;99.90
9810;DHT22;4944;52.514;13.192;2022-09-09T15:17:23;23.70;99.90
9810;DHT22;4944;52.514;13.192;2022-09-09T15:19:53;23.80;99.90
9810;DHT22;4944;52.514;13.192;2022-09-09T15:22:21;23.80;99.90
9810;DHT22;4944;52.514;13.192;2022-09-09T15:24:48;23.70;99.90
9810;DHT22;4944;52.514;13.192;2022-09-09T15:27:14;23.80;99.90
9810;DHT22;4944;52.514;13.192;2022-09-09T15:29:41;23.80;99.90
9810;DHT22;4944;52.514;13.192;2022-09-09T15:32:09;23.70;99.90
9810;DHT22;4944;52.514;13.192;2022-09-09T15:34:36;23.50;99.90
9810;DHT22;4944;52.514;13.192;2022-09-09T15:37:04;23.40;99.90
9810;DHT22;4944;52.514;13.192;2022-09-09T15:39:32;23.30;99.90
9810;DHT22;4944;52.514;13.192;2022-09-09T15:41:58;23.20;99.90
9810;DHT22;4944;52.514;13.192;2022-09-09T15:44:27;23.20;99.90
9810;DHT22;4944;52.514;13.192;2022-09-09T15:46:53;23.20;99.90
9810;DHT22;4944;52.514;13.192;2022-09-09T15:49:22;23.10;99.90
9810;DHT22;4944;52.514;13.192;2022-09-09T15:51:53;23.10;99.90
9810;DHT22;4944;52.514;13.192;2022-09-09T15:54:22;23.00;99.90
9810;DHT22;4944;52.514;13.192;2022-09-09T15:56:51;23.00;99.90
9810;DHT22;4944;52.514;13.192;2022-09-09T15:59:19;22.90;99.90
9810;DHT22;4944;52.514;13.192;2022-09-09T16:01:45;22.90;99.90
9810;DHT22;4944;52.514;13.192;2022-09-09T16:04:12;22.90;99.90
9810;DHT22;4944;52.514;13.192;2022-09-09T16:06:41;22.80;99.90
9810;DHT22;4944;52.514;13.192;2022-09-09T16:09:07;22.70;99.90
9810;DHT22;4944;52.514;13.192;2022-09-09T16:11:37;22.60;99.90
9810;DHT22;4944;52.514;13.192;2022-09-09T16:14:05;22.60;99.90